RYR37SM LMML-EBCI
Flight info
| Callsign | RYR37SM |
|---|---|
| Flight time | N/A |
| Altitude | 36000 |
| Route | GZO M622 SOPIR DCT MABOX DCT ADEXI DCT ROXAN DCT KISTO DCT KONER DCT AOSTA DCT ORSUD DCT MOLUS DCT GILIR DCT PENDU DCT IXILU DCT GIVOR/N0458F320 DCT SORAL DCT IBERA DCT DIK Y37 BATTY |
| Aircraft | B738/M-SDE2E3FGHIRWXY/LB1 |
Departure
| Time | 2026-04-27 20:44 |
|---|---|
| Airport | Malta International Airport (LMML) |
Arrival
| Time | N/A |
|---|---|
| Airport | Brussels South Charleroi Airport (EBCI) |
| Time | Latitude | Longitude | Altitude | Speed | Heading |
|---|---|---|---|---|---|
| 2026-04-27 20:15 | 35.84806 | 14.49514 | 258 ft | 0 kts | 359° |
| 2026-04-27 20:35 | 35.84795 | 14.49514 | 258 ft | 2 kts | 359° |
| 2026-04-27 20:35 | 35.84778 | 14.49514 | 258 ft | 2 kts | 359° |
| 2026-04-27 20:36 | 35.84762 | 14.49515 | 258 ft | 2 kts | 358° |
| 2026-04-27 20:36 | 35.84745 | 14.49516 | 258 ft | 2 kts | 353° |
| 2026-04-27 20:36 | 35.84729 | 14.49521 | 258 ft | 2 kts | 322° |
| 2026-04-27 20:36 | 35.84717 | 14.49535 | 258 ft | 2 kts | 314° |
| 2026-04-27 20:37 | 35.84711 | 14.49543 | 258 ft | 0 kts | 315° |
| 2026-04-27 20:40 | 35.84726 | 14.49525 | 258 ft | 8 kts | 315° |
| 2026-04-27 20:40 | 35.84787 | 14.49450 | 258 ft | 16 kts | 314° |
| 2026-04-27 20:40 | 35.84866 | 14.49351 | 258 ft | 16 kts | 315° |
| 2026-04-27 20:40 | 35.84933 | 14.49247 | 257 ft | 14 kts | 288° |
| 2026-04-27 20:41 | 35.84904 | 14.49147 | 257 ft | 13 kts | 244° |
| 2026-04-27 20:41 | 35.84930 | 14.49035 | 257 ft | 14 kts | 271° |
| 2026-04-27 20:41 | 35.84874 | 14.48973 | 257 ft | 11 kts | 178° |
| 2026-04-27 20:41 | 35.84799 | 14.48978 | 258 ft | 10 kts | 206° |
| 2026-04-27 20:42 | 35.84753 | 14.48981 | 258 ft | 5 kts | 135° |
| 2026-04-27 20:42 | 35.84752 | 14.48983 | 258 ft | 0 kts | 135° |
| 2026-04-27 20:44 | 35.84700 | 14.49046 | 258 ft | 38 kts | 135° |
| 2026-04-27 20:44 | 35.84323 | 14.49514 | 257 ft | 114 kts | 135° |
| 2026-04-27 20:44 | 35.83624 | 14.50382 | 321 ft | 168 kts | 135° |
| 2026-04-27 20:44 | 35.82791 | 14.51407 | 1141 ft | 170 kts | 135° |
| 2026-04-27 20:45 | 35.81752 | 14.52190 | 1844 ft | 185 kts | 166° |
| 2026-04-27 20:45 | 35.80415 | 14.51995 | 2254 ft | 214 kts | 208° |
| 2026-04-27 20:45 | 35.79369 | 14.50591 | 2520 ft | 237 kts | 242° |
| 2026-04-27 20:45 | 35.78618 | 14.48737 | 3075 ft | 245 kts | 244° |
| 2026-04-27 20:46 | 35.77921 | 14.46854 | 3767 ft | 251 kts | 246° |
| 2026-04-27 20:46 | 35.77183 | 14.44785 | 4207 ft | 270 kts | 247° |
| 2026-04-27 20:46 | 35.76522 | 14.42598 | 5087 ft | 274 kts | 254° |
| 2026-04-27 20:46 | 35.76334 | 14.40302 | 6021 ft | 269 kts | 282° |
| 2026-04-27 20:47 | 35.77115 | 14.38235 | 6897 ft | 271 kts | 310° |
| 2026-04-27 20:47 | 35.78513 | 14.36673 | 7698 ft | 274 kts | 323° |
| 2026-04-27 20:47 | 35.80107 | 14.35371 | 8532 ft | 277 kts | 326° |
| 2026-04-27 20:47 | 35.81751 | 14.34107 | 9323 ft | 281 kts | 326° |
| 2026-04-27 20:48 | 35.83417 | 14.32835 | 10261 ft | 278 kts | 326° |
| 2026-04-27 20:48 | 35.85078 | 14.31550 | 10847 ft | 290 kts | 325° |
| 2026-04-27 20:48 | 35.86828 | 14.30169 | 11013 ft | 314 kts | 325° |
| 2026-04-27 20:48 | 35.88732 | 14.28657 | 11188 ft | 337 kts | 325° |
| 2026-04-27 20:49 | 35.90763 | 14.27040 | 11377 ft | 357 kts | 325° |
| 2026-04-27 20:49 | 35.92886 | 14.25349 | 11826 ft | 367 kts | 325° |
| 2026-04-27 20:49 | 35.95039 | 14.23635 | 12509 ft | 369 kts | 325° |
| 2026-04-27 20:49 | 35.97200 | 14.21913 | 13243 ft | 371 kts | 324° |
| 2026-04-27 20:50 | 35.99381 | 14.20174 | 13932 ft | 373 kts | 324° |
| 2026-04-27 20:50 | 36.01573 | 14.18423 | 14527 ft | 376 kts | 324° |
| 2026-04-27 20:50 | 36.03787 | 14.16652 | 15112 ft | 380 kts | 324° |
| 2026-04-27 20:50 | 36.05985 | 14.14892 | 15698 ft | 383 kts | 324° |
| 2026-04-27 20:51 | 36.08228 | 14.13095 | 16291 ft | 386 kts | 324° |
| 2026-04-27 20:51 | 36.10488 | 14.11283 | 16870 ft | 389 kts | 324° |
| 2026-04-27 20:51 | 36.12769 | 14.09453 | 17424 ft | 392 kts | 324° |
| 2026-04-27 20:51 | 36.15070 | 14.07606 | 17979 ft | 396 kts | 324° |
| 2026-04-27 20:52 | 36.17390 | 14.05742 | 18507 ft | 399 kts | 324° |
| 2026-04-27 20:52 | 36.19732 | 14.03859 | 18991 ft | 402 kts | 324° |
| 2026-04-27 20:52 | 36.22088 | 14.01964 | 19489 ft | 404 kts | 324° |
| 2026-04-27 20:52 | 36.24456 | 14.00058 | 19985 ft | 407 kts | 324° |
| 2026-04-27 20:53 | 36.26836 | 13.98140 | 20478 ft | 409 kts | 324° |
| 2026-04-27 20:53 | 36.29202 | 13.96232 | 20936 ft | 412 kts | 324° |
| 2026-04-27 20:53 | 36.31621 | 13.94280 | 21389 ft | 415 kts | 324° |
| 2026-04-27 20:53 | 36.34048 | 13.92320 | 21829 ft | 418 kts | 324° |
| 2026-04-27 20:54 | 36.38946 | 13.88360 | 22697 ft | 423 kts | 324° |
| 2026-04-27 20:54 | 36.41423 | 13.86356 | 23112 ft | 426 kts | 324° |
| 2026-04-27 20:54 | 36.43913 | 13.84338 | 23519 ft | 428 kts | 324° |
| 2026-04-27 20:55 | 36.46385 | 13.82335 | 23863 ft | 431 kts | 324° |
| 2026-04-27 20:55 | 36.48904 | 13.80291 | 24208 ft | 433 kts | 324° |
| 2026-04-27 20:55 | 36.51425 | 13.78216 | 24559 ft | 434 kts | 322° |
| 2026-04-27 20:55 | 36.53901 | 13.76044 | 24897 ft | 436 kts | 321° |
| 2026-04-27 20:56 | 36.56361 | 13.73814 | 25224 ft | 438 kts | 321° |
| 2026-04-27 20:56 | 36.58824 | 13.71560 | 25553 ft | 440 kts | 321° |
| 2026-04-27 20:56 | 36.61297 | 13.69299 | 25854 ft | 442 kts | 321° |
| 2026-04-27 20:56 | 36.63793 | 13.67027 | 26157 ft | 444 kts | 321° |
| 2026-04-27 20:57 | 36.66299 | 13.64756 | 26448 ft | 447 kts | 321° |
| 2026-04-27 20:57 | 36.68818 | 13.62478 | 26735 ft | 449 kts | 321° |
| 2026-04-27 20:57 | 36.71351 | 13.60191 | 27012 ft | 451 kts | 321° |
| 2026-04-27 20:57 | 36.73899 | 13.57890 | 27273 ft | 453 kts | 321° |
| 2026-04-27 20:58 | 36.76424 | 13.55609 | 27535 ft | 455 kts | 321° |
| 2026-04-27 20:58 | 36.78994 | 13.53286 | 27882 ft | 455 kts | 321° |
| 2026-04-27 20:58 | 36.81556 | 13.50967 | 28300 ft | 454 kts | 321° |
| 2026-04-27 20:58 | 36.84111 | 13.48654 | 28723 ft | 453 kts | 321° |
| 2026-04-27 20:59 | 36.86658 | 13.46344 | 29084 ft | 453 kts | 321° |
| 2026-04-27 20:59 | 36.89207 | 13.44029 | 29433 ft | 453 kts | 321° |
| 2026-04-27 20:59 | 36.91756 | 13.41713 | 29816 ft | 452 kts | 321° |
| 2026-04-27 20:59 | 36.94300 | 13.39400 | 30210 ft | 451 kts | 321° |
| 2026-04-27 21:00 | 36.96839 | 13.37089 | 30542 ft | 451 kts | 321° |
| 2026-04-27 21:00 | 36.99367 | 13.34787 | 30919 ft | 448 kts | 321° |
| 2026-04-27 21:00 | 37.01877 | 13.32499 | 31334 ft | 445 kts | 321° |
| 2026-04-27 21:00 | 37.04371 | 13.30224 | 31758 ft | 442 kts | 321° |
| 2026-04-27 21:01 | 37.06862 | 13.27949 | 32126 ft | 440 kts | 321° |
| 2026-04-27 21:01 | 37.09297 | 13.25722 | 32464 ft | 439 kts | 321° |
| 2026-04-27 21:01 | 37.11765 | 13.23465 | 32812 ft | 437 kts | 321° |
| 2026-04-27 21:01 | 37.14211 | 13.21225 | 33186 ft | 435 kts | 320° |
| 2026-04-27 21:02 | 37.16651 | 13.18990 | 33534 ft | 433 kts | 320° |
| 2026-04-27 21:02 | 37.19089 | 13.16757 | 33852 ft | 432 kts | 320° |
| 2026-04-27 21:02 | 37.21512 | 13.14536 | 34151 ft | 432 kts | 320° |
| 2026-04-27 21:02 | 37.23934 | 13.12313 | 34387 ft | 431 kts | 320° |
| 2026-04-27 21:03 | 37.26352 | 13.10092 | 34620 ft | 430 kts | 320° |
| 2026-04-27 21:03 | 37.28772 | 13.07867 | 34834 ft | 430 kts | 320° |
| 2026-04-27 21:03 | 37.31188 | 13.05645 | 35049 ft | 430 kts | 320° |
| 2026-04-27 21:03 | 37.33589 | 13.03481 | 35264 ft | 431 kts | 323° |
| 2026-04-27 21:04 | 37.36206 | 13.01621 | 35451 ft | 435 kts | 332° |
| 2026-04-27 21:04 | 37.39028 | 13.00176 | 35659 ft | 436 kts | 335° |
| 2026-04-27 21:04 | 37.41864 | 12.98801 | 35885 ft | 436 kts | 335° |
| 2026-04-27 21:04 | 37.44693 | 12.97443 | 36098 ft | 436 kts | 335° |
| 2026-04-27 21:05 | 37.47537 | 12.96072 | 36100 ft | 439 kts | 335° |
| 2026-04-27 21:05 | 37.53224 | 12.93300 | 36103 ft | 437 kts | 335° |
| 2026-04-27 21:06 | 37.58847 | 12.90528 | 36115 ft | 434 kts | 335° |
| 2026-04-27 21:06 | 37.64455 | 12.87747 | 36114 ft | 431 kts | 335° |
| 2026-04-27 21:07 | 37.70040 | 12.84969 | 36119 ft | 430 kts | 335° |
| 2026-04-27 21:07 | 37.75618 | 12.82191 | 36115 ft | 431 kts | 335° |
| 2026-04-27 21:08 | 37.81167 | 12.79424 | 36114 ft | 433 kts | 335° |
| 2026-04-27 21:08 | 37.86777 | 12.76621 | 36114 ft | 435 kts | 335° |
| 2026-04-27 21:09 | 37.92429 | 12.73794 | 36111 ft | 437 kts | 335° |
| 2026-04-27 21:09 | 37.98110 | 12.70947 | 36110 ft | 439 kts | 335° |
| 2026-04-27 21:10 | 38.03802 | 12.68091 | 36109 ft | 441 kts | 335° |
| 2026-04-27 21:10 | 38.09530 | 12.65212 | 36111 ft | 442 kts | 335° |
| 2026-04-27 21:11 | 38.15219 | 12.62347 | 36108 ft | 442 kts | 335° |
| 2026-04-27 21:11 | 38.20940 | 12.59462 | 36112 ft | 442 kts | 335° |
| 2026-04-27 21:12 | 38.26669 | 12.56568 | 36116 ft | 442 kts | 335° |
| 2026-04-27 21:12 | 38.32352 | 12.53691 | 36114 ft | 441 kts | 335° |
| 2026-04-27 21:13 | 38.38063 | 12.50796 | 36117 ft | 441 kts | 336° |
| 2026-04-27 21:13 | 38.42804 | 12.48388 | 36119 ft | 440 kts | 336° |
| 2026-04-27 21:14 | 38.48493 | 12.45495 | 36115 ft | 440 kts | 336° |
| 2026-04-27 21:14 | 38.54179 | 12.42599 | 36116 ft | 440 kts | 336° |
| 2026-04-27 21:15 | 38.59868 | 12.39696 | 36118 ft | 439 kts | 336° |
| 2026-04-27 21:15 | 38.65551 | 12.36790 | 36121 ft | 439 kts | 336° |
| 2026-04-27 21:16 | 38.71196 | 12.33900 | 36123 ft | 439 kts | 336° |
| 2026-04-27 21:16 | 38.76886 | 12.30981 | 36123 ft | 440 kts | 336° |
| 2026-04-27 21:17 | 38.82587 | 12.28052 | 36123 ft | 440 kts | 336° |
| 2026-04-27 21:17 | 38.88273 | 12.25125 | 36124 ft | 441 kts | 336° |
| 2026-04-27 21:18 | 38.93926 | 12.22210 | 36127 ft | 441 kts | 336° |
| 2026-04-27 21:18 | 38.99647 | 12.19255 | 36128 ft | 442 kts | 336° |
| 2026-04-27 21:19 | 39.05330 | 12.16315 | 36125 ft | 442 kts | 336° |
| 2026-04-27 21:19 | 39.11048 | 12.13351 | 36128 ft | 443 kts | 336° |
| 2026-04-27 21:20 | 39.19638 | 12.08889 | 36127 ft | 443 kts | 336° |
| 2026-04-27 21:20 | 39.25354 | 12.05914 | 36127 ft | 443 kts | 336° |
| 2026-04-27 21:21 | 39.31041 | 12.02949 | 36125 ft | 443 kts | 336° |
| 2026-04-27 21:21 | 39.36767 | 11.99957 | 36128 ft | 443 kts | 336° |
| 2026-04-27 21:22 | 39.42495 | 11.96959 | 36126 ft | 443 kts | 336° |
| 2026-04-27 21:22 | 39.48214 | 11.93961 | 36130 ft | 443 kts | 336° |
| 2026-04-27 21:23 | 39.53900 | 11.90975 | 36127 ft | 443 kts | 336° |
| 2026-04-27 21:23 | 39.59613 | 11.87969 | 36127 ft | 443 kts | 336° |
| 2026-04-27 21:24 | 39.65329 | 11.84957 | 36125 ft | 443 kts | 336° |
| 2026-04-27 21:24 | 39.71037 | 11.81943 | 36129 ft | 443 kts | 336° |
| 2026-04-27 21:25 | 39.76747 | 11.78923 | 36130 ft | 442 kts | 336° |
| 2026-04-27 21:25 | 39.82459 | 11.75896 | 36126 ft | 442 kts | 336° |
| 2026-04-27 21:26 | 39.88158 | 11.72870 | 36126 ft | 442 kts | 336° |
| 2026-04-27 21:26 | 39.93824 | 11.69857 | 36128 ft | 442 kts | 336° |
| 2026-04-27 21:27 | 39.99528 | 11.66818 | 36125 ft | 442 kts | 336° |
| 2026-04-27 21:27 | 40.05222 | 11.63778 | 36130 ft | 442 kts | 336° |
| 2026-04-27 21:28 | 40.10923 | 11.60730 | 36130 ft | 442 kts | 336° |
| 2026-04-27 21:28 | 40.16598 | 11.57690 | 36125 ft | 442 kts | 336° |
| 2026-04-27 21:29 | 40.22302 | 11.54629 | 36126 ft | 443 kts | 336° |
| 2026-04-27 21:29 | 40.27998 | 11.51567 | 36130 ft | 443 kts | 336° |
| 2026-04-27 21:30 | 40.33705 | 11.48493 | 36128 ft | 443 kts | 336° |
| 2026-04-27 21:30 | 40.39407 | 11.45416 | 36128 ft | 443 kts | 336° |
| 2026-04-27 21:31 | 40.45094 | 11.42341 | 36127 ft | 443 kts | 336° |
| 2026-04-27 21:31 | 40.50779 | 11.39262 | 36125 ft | 443 kts | 336° |
| 2026-04-27 21:32 | 40.56485 | 11.36166 | 36127 ft | 443 kts | 336° |
| 2026-04-27 21:32 | 40.62197 | 11.33061 | 36129 ft | 443 kts | 336° |
| 2026-04-27 21:33 | 40.67912 | 11.29948 | 36132 ft | 443 kts | 336° |
| 2026-04-27 21:33 | 40.73577 | 11.26856 | 36129 ft | 443 kts | 336° |
| 2026-04-27 21:34 | 40.79293 | 11.23732 | 36129 ft | 443 kts | 336° |
| 2026-04-27 21:34 | 40.84993 | 11.20615 | 36126 ft | 443 kts | 336° |
| 2026-04-27 21:35 | 40.90696 | 11.17520 | 36124 ft | 443 kts | 336° |
| 2026-04-27 21:35 | 40.96365 | 11.14443 | 36130 ft | 443 kts | 336° |
| 2026-04-27 21:36 | 41.02076 | 11.11335 | 36128 ft | 443 kts | 336° |
| 2026-04-27 21:36 | 41.07788 | 11.08219 | 36128 ft | 443 kts | 336° |
| 2026-04-27 21:37 | 41.13455 | 11.05120 | 36126 ft | 443 kts | 336° |
| 2026-04-27 21:37 | 41.19162 | 11.01993 | 36124 ft | 443 kts | 336° |
| 2026-04-27 21:38 | 41.24856 | 10.98868 | 36125 ft | 443 kts | 336° |
| 2026-04-27 21:38 | 41.30558 | 10.95732 | 36130 ft | 443 kts | 337° |
| 2026-04-27 21:39 | 41.36255 | 10.92594 | 36130 ft | 443 kts | 337° |
| 2026-04-27 21:39 | 41.41958 | 10.89445 | 36127 ft | 443 kts | 337° |
| 2026-04-27 21:40 | 41.47655 | 10.86295 | 36125 ft | 443 kts | 337° |
| 2026-04-27 21:40 | 41.53321 | 10.83156 | 36124 ft | 443 kts | 337° |
| 2026-04-27 21:41 | 41.59027 | 10.79988 | 36124 ft | 444 kts | 337° |
| 2026-04-27 21:41 | 41.64727 | 10.76817 | 36123 ft | 444 kts | 337° |
| 2026-04-27 21:42 | 41.70432 | 10.73638 | 36127 ft | 444 kts | 337° |
| 2026-04-27 21:42 | 41.76137 | 10.70452 | 36132 ft | 444 kts | 337° |
| 2026-04-27 21:43 | 41.81836 | 10.67264 | 36127 ft | 444 kts | 337° |
| 2026-04-27 21:43 | 41.87500 | 10.64089 | 36127 ft | 444 kts | 337° |
| 2026-04-27 21:44 | 41.93198 | 10.60888 | 36127 ft | 443 kts | 337° |
| 2026-04-27 21:44 | 41.98892 | 10.57684 | 36124 ft | 443 kts | 337° |
| 2026-04-27 21:45 | 42.04591 | 10.54471 | 36122 ft | 443 kts | 337° |
| 2026-04-27 21:45 | 42.10251 | 10.51274 | 36127 ft | 443 kts | 337° |
| 2026-04-27 21:46 | 42.15928 | 10.48060 | 36126 ft | 443 kts | 337° |
| 2026-04-27 21:46 | 42.21610 | 10.44838 | 36126 ft | 442 kts | 337° |
| 2026-04-27 21:47 | 42.27258 | 10.41628 | 36124 ft | 442 kts | 337° |
| 2026-04-27 21:47 | 42.32932 | 10.38391 | 36122 ft | 442 kts | 336° |
| 2026-04-27 21:48 | 42.38431 | 10.34673 | 36125 ft | 441 kts | 332° |
| 2026-04-27 21:48 | 42.43845 | 10.30733 | 36121 ft | 441 kts | 332° |
| 2026-04-27 21:49 | 42.49250 | 10.26806 | 36121 ft | 441 kts | 332° |
| 2026-04-27 21:49 | 42.54645 | 10.22924 | 36121 ft | 441 kts | 332° |
| 2026-04-27 21:50 | 42.60067 | 10.19034 | 36122 ft | 440 kts | 332° |
| 2026-04-27 21:50 | 42.65484 | 10.15142 | 36123 ft | 440 kts | 332° |
| 2026-04-27 21:51 | 42.70897 | 10.11245 | 36123 ft | 440 kts | 332° |
| 2026-04-27 21:51 | 42.76301 | 10.07346 | 36121 ft | 439 kts | 332° |
| 2026-04-27 21:52 | 42.81703 | 10.03440 | 36119 ft | 439 kts | 332° |
| 2026-04-27 21:52 | 42.87068 | 9.99553 | 36119 ft | 439 kts | 332° |
| 2026-04-27 21:53 | 42.92466 | 9.95635 | 36120 ft | 439 kts | 332° |
| 2026-04-27 21:53 | 42.97852 | 9.91717 | 36117 ft | 438 kts | 332° |
| 2026-04-27 21:54 | 43.03236 | 9.87793 | 36117 ft | 438 kts | 332° |
| 2026-04-27 21:54 | 43.08609 | 9.83869 | 36118 ft | 438 kts | 332° |
| 2026-04-27 21:55 | 43.13993 | 9.79929 | 36118 ft | 438 kts | 332° |
| 2026-04-27 21:55 | 43.19326 | 9.76019 | 36115 ft | 437 kts | 332° |
| 2026-04-27 21:56 | 43.27378 | 9.70099 | 36117 ft | 437 kts | 332° |
| 2026-04-27 21:57 | 43.32742 | 9.66147 | 36117 ft | 437 kts | 332° |
| 2026-04-27 21:57 | 43.38108 | 9.62184 | 36118 ft | 437 kts | 332° |
| 2026-04-27 21:58 | 43.43468 | 9.58218 | 36118 ft | 437 kts | 332° |
| 2026-04-27 21:58 | 43.48796 | 9.54268 | 36121 ft | 437 kts | 332° |
| 2026-04-27 21:59 | 43.54017 | 9.49963 | 36128 ft | 437 kts | 327° |
| 2026-04-27 21:59 | 43.59073 | 9.45313 | 36115 ft | 437 kts | 326° |
| 2026-04-27 22:00 | 43.63264 | 9.41425 | 36118 ft | 436 kts | 326° |
| 2026-04-27 22:00 | 43.68313 | 9.36772 | 36114 ft | 436 kts | 326° |
| 2026-04-27 22:01 | 43.73379 | 9.32122 | 36120 ft | 436 kts | 326° |
| 2026-04-27 22:01 | 43.78401 | 9.27514 | 36117 ft | 435 kts | 326° |
| 2026-04-27 22:02 | 43.83450 | 9.22871 | 36118 ft | 434 kts | 326° |
| 2026-04-27 22:02 | 43.88491 | 9.18226 | 36119 ft | 434 kts | 326° |
| 2026-04-27 22:03 | 43.93479 | 9.13619 | 36118 ft | 433 kts | 326° |
| 2026-04-27 22:03 | 43.98496 | 9.08977 | 36120 ft | 432 kts | 326° |
| 2026-04-27 22:04 | 44.03497 | 9.04339 | 36102 ft | 432 kts | 326° |
| 2026-04-27 22:04 | 44.08487 | 8.99701 | 36123 ft | 431 kts | 326° |
| 2026-04-27 22:05 | 44.13470 | 8.95061 | 36103 ft | 431 kts | 325° |
| 2026-04-27 22:05 | 44.18425 | 8.90438 | 36101 ft | 431 kts | 325° |
| 2026-04-27 22:06 | 44.23404 | 8.85782 | 36101 ft | 430 kts | 325° |
| 2026-04-27 22:06 | 44.28384 | 8.81116 | 36112 ft | 430 kts | 325° |
| 2026-04-27 22:07 | 44.33341 | 8.76462 | 36100 ft | 431 kts | 325° |
| 2026-04-27 22:07 | 44.38323 | 8.71774 | 36094 ft | 431 kts | 325° |
| 2026-04-27 22:08 | 44.43297 | 8.67084 | 36114 ft | 431 kts | 324° |
| 2026-04-27 22:08 | 44.48279 | 8.62377 | 36115 ft | 432 kts | 324° |
| 2026-04-27 22:09 | 44.53265 | 8.57657 | 36093 ft | 432 kts | 324° |
| 2026-04-27 22:09 | 44.58222 | 8.52954 | 36089 ft | 432 kts | 324° |
| 2026-04-27 22:10 | 44.63210 | 8.48211 | 36092 ft | 432 kts | 324° |
| 2026-04-27 22:10 | 44.68198 | 8.43459 | 36090 ft | 432 kts | 324° |
| 2026-04-27 22:11 | 44.73174 | 8.38707 | 36071 ft | 432 kts | 324° |
| 2026-04-27 22:11 | 44.78112 | 8.33983 | 36079 ft | 432 kts | 324° |
| 2026-04-27 22:12 | 44.83070 | 8.29228 | 36070 ft | 431 kts | 324° |
| 2026-04-27 22:12 | 44.88024 | 8.24469 | 36060 ft | 430 kts | 324° |
| 2026-04-27 22:13 | 44.92964 | 8.19712 | 36060 ft | 430 kts | 324° |
| 2026-04-27 22:13 | 44.97908 | 8.14941 | 36061 ft | 429 kts | 323° |
| 2026-04-27 22:14 | 45.02837 | 8.10175 | 36065 ft | 429 kts | 323° |
| 2026-04-27 22:14 | 45.05298 | 8.07791 | 36054 ft | 429 kts | 323° |
| 2026-04-27 22:15 | 45.08777 | 8.04416 | 36054 ft | 429 kts | 323° |
| 2026-04-27 22:15 | 45.13694 | 7.99639 | 36052 ft | 428 kts | 323° |
| 2026-04-27 22:16 | 45.18606 | 7.94857 | 36055 ft | 429 kts | 323° |
| 2026-04-27 22:16 | 45.23533 | 7.90049 | 36053 ft | 429 kts | 323° |
| 2026-04-27 22:17 | 45.28448 | 7.85243 | 36054 ft | 429 kts | 323° |
| 2026-04-27 22:17 | 45.33348 | 7.80442 | 36055 ft | 430 kts | 323° |
| 2026-04-27 22:18 | 45.38268 | 7.75610 | 36058 ft | 430 kts | 323° |
| 2026-04-27 22:18 | 45.43198 | 7.70758 | 36062 ft | 430 kts | 323° |
| 2026-04-27 22:19 | 45.48123 | 7.65900 | 36090 ft | 431 kts | 323° |
| 2026-04-27 22:19 | 45.53068 | 7.61013 | 36093 ft | 432 kts | 323° |
| 2026-04-27 22:20 | 45.57985 | 7.56142 | 36101 ft | 433 kts | 323° |
| 2026-04-27 22:20 | 45.62929 | 7.51234 | 36121 ft | 432 kts | 323° |
| 2026-04-27 22:21 | 45.67883 | 7.46305 | 36124 ft | 433 kts | 323° |
| 2026-04-27 22:21 | 45.72821 | 7.41379 | 36127 ft | 431 kts | 323° |
| 2026-04-27 22:22 | 45.77742 | 7.36463 | 36123 ft | 430 kts | 323° |
| 2026-04-27 22:22 | 45.82608 | 7.31576 | 36132 ft | 429 kts | 322° |
| 2026-04-27 22:23 | 45.87485 | 7.26639 | 36123 ft | 427 kts | 322° |
| 2026-04-27 22:23 | 45.92338 | 7.21718 | 36117 ft | 427 kts | 322° |
| 2026-04-27 22:24 | 45.97189 | 7.16788 | 36108 ft | 427 kts | 322° |
| 2026-04-27 22:24 | 46.02001 | 7.11857 | 36109 ft | 427 kts | 322° |
| 2026-04-27 22:25 | 46.06829 | 7.06891 | 36101 ft | 427 kts | 322° |
| 2026-04-27 22:25 | 46.11658 | 7.01915 | 36102 ft | 427 kts | 322° |
| 2026-04-27 22:26 | 46.16490 | 6.96928 | 36099 ft | 427 kts | 322° |
| 2026-04-27 22:26 | 46.21309 | 6.91945 | 36104 ft | 426 kts | 322° |
| 2026-04-27 22:27 | 46.26134 | 6.86941 | 36098 ft | 426 kts | 322° |
| 2026-04-27 22:27 | 46.30973 | 6.81912 | 36093 ft | 428 kts | 322° |
| 2026-04-27 22:28 | 46.35794 | 6.76891 | 36083 ft | 430 kts | 322° |
| 2026-04-27 22:28 | 46.40670 | 6.71803 | 36075 ft | 432 kts | 322° |
| 2026-04-27 22:29 | 46.45642 | 6.66919 | 36062 ft | 434 kts | 330° |
| 2026-04-27 22:29 | 46.51049 | 6.63105 | 36064 ft | 434 kts | 332° |
| 2026-04-27 22:30 | 46.56506 | 6.59346 | 36066 ft | 434 kts | 332° |
| 2026-04-27 22:30 | 46.61967 | 6.55529 | 36069 ft | 434 kts | 332° |
| 2026-04-27 22:31 | 46.67356 | 6.51722 | 36067 ft | 433 kts | 331° |
| 2026-04-27 22:31 | 46.72767 | 6.47882 | 36073 ft | 432 kts | 331° |
| 2026-04-27 22:32 | 46.78177 | 6.44035 | 36076 ft | 432 kts | 331° |
| 2026-04-27 22:32 | 46.83568 | 6.40194 | 36077 ft | 431 kts | 331° |
| 2026-04-27 22:33 | 46.88967 | 6.36339 | 36078 ft | 431 kts | 331° |
| 2026-04-27 22:33 | 46.94348 | 6.32487 | 36075 ft | 431 kts | 331° |
| 2026-04-27 22:34 | 46.99728 | 6.28628 | 36079 ft | 430 kts | 331° |
| 2026-04-27 22:34 | 47.05113 | 6.24757 | 36076 ft | 430 kts | 331° |
| 2026-04-27 22:35 | 47.10461 | 6.20916 | 36068 ft | 431 kts | 331° |
| 2026-04-27 22:35 | 47.15855 | 6.17047 | 36070 ft | 431 kts | 331° |
| 2026-04-27 22:36 | 47.21257 | 6.13161 | 36069 ft | 431 kts | 331° |
| 2026-04-27 22:36 | 47.26620 | 6.09292 | 36054 ft | 432 kts | 331° |
| 2026-04-27 22:37 | 47.32029 | 6.05453 | 36045 ft | 433 kts | 335° |
| 2026-04-27 22:37 | 47.37920 | 6.03350 | 36056 ft | 440 kts | 351° |
| 2026-04-27 22:38 | 47.44085 | 6.03339 | 36057 ft | 444 kts | 358° |
| 2026-04-27 22:38 | 47.50259 | 6.03573 | 36061 ft | 444 kts | 357° |
| 2026-04-27 22:39 | 47.56441 | 6.03741 | 36065 ft | 444 kts | 357° |
| 2026-04-27 22:39 | 47.62589 | 6.03867 | 36067 ft | 444 kts | 357° |
| 2026-04-27 22:40 | 47.68769 | 6.03991 | 36072 ft | 444 kts | 357° |
| 2026-04-27 22:40 | 47.74967 | 6.04405 | 36063 ft | 448 kts | 5° |
| 2026-04-27 22:41 | 47.81069 | 6.06565 | 36072 ft | 451 kts | 11° |
| 2026-04-27 22:41 | 47.87109 | 6.08942 | 36080 ft | 451 kts | 11° |
| 2026-04-27 22:42 | 47.93191 | 6.11293 | 36082 ft | 451 kts | 10° |
| 2026-04-27 22:42 | 47.99278 | 6.13602 | 36081 ft | 451 kts | 10° |
| 2026-04-27 22:43 | 48.05360 | 6.15899 | 36092 ft | 450 kts | 10° |
| 2026-04-27 22:43 | 48.11438 | 6.18200 | 36092 ft | 450 kts | 10° |
| 2026-04-27 22:44 | 48.17510 | 6.20506 | 36091 ft | 450 kts | 10° |
| 2026-04-27 22:44 | 48.23548 | 6.22806 | 36092 ft | 450 kts | 10° |
| 2026-04-27 22:45 | 48.29616 | 6.25124 | 36096 ft | 450 kts | 10° |
| 2026-04-27 22:45 | 48.35691 | 6.27449 | 36094 ft | 450 kts | 10° |
| 2026-04-27 22:46 | 48.40731 | 6.29382 | 36100 ft | 450 kts | 10° |
| 2026-04-27 22:46 | 48.46794 | 6.31714 | 36099 ft | 449 kts | 10° |
| 2026-04-27 22:47 | 48.53838 | 6.34430 | 36105 ft | 449 kts | 10° |
| 2026-04-27 22:47 | 48.58911 | 6.36391 | 36103 ft | 449 kts | 10° |
| 2026-04-27 22:48 | 48.64951 | 6.38719 | 36104 ft | 447 kts | 9° |
| 2026-04-27 22:48 | 48.71040 | 6.39794 | 36110 ft | 442 kts | 360° |
| 2026-04-27 22:49 | 48.77182 | 6.40324 | 36099 ft | 441 kts | 360° |
| 2026-04-27 22:49 | 48.83317 | 6.40893 | 36109 ft | 441 kts | 0° |
| 2026-04-27 22:50 | 48.89435 | 6.41515 | 36107 ft | 441 kts | 0° |
| 2026-04-27 22:50 | 48.95562 | 6.42153 | 36104 ft | 441 kts | 0° |
| 2026-04-27 22:51 | 49.01648 | 6.42785 | 36105 ft | 440 kts | 0° |
| 2026-04-27 22:51 | 49.07755 | 6.43420 | 36109 ft | 440 kts | 0° |
| 2026-04-27 22:52 | 49.13807 | 6.42941 | 36101 ft | 433 kts | 344° |
| 2026-04-27 22:52 | 49.19606 | 6.40544 | 36110 ft | 431 kts | 341° |
| 2026-04-27 22:53 | 49.25389 | 6.38068 | 36111 ft | 431 kts | 342° |
| 2026-04-27 22:53 | 49.31199 | 6.35641 | 36114 ft | 432 kts | 342° |
| 2026-04-27 22:54 | 49.36955 | 6.33258 | 36117 ft | 432 kts | 342° |
| 2026-04-27 22:54 | 49.42763 | 6.30849 | 36126 ft | 432 kts | 342° |
| 2026-04-27 22:55 | 49.48484 | 6.28082 | 36120 ft | 428 kts | 331° |
| 2026-04-27 22:55 | 49.53310 | 6.22872 | 36123 ft | 424 kts | 313° |
| 2026-04-27 22:55 | 49.55264 | 6.19448 | 35797 ft | 429 kts | 309° |
| 2026-04-27 22:56 | 49.57150 | 6.15885 | 35234 ft | 428 kts | 308° |
| 2026-04-27 22:56 | 49.59011 | 6.12301 | 34586 ft | 428 kts | 308° |
| 2026-04-27 22:56 | 49.60852 | 6.08749 | 33890 ft | 428 kts | 308° |
| 2026-04-27 22:56 | 49.62717 | 6.05164 | 33097 ft | 429 kts | 308° |
| 2026-04-27 22:57 | 49.64589 | 6.01586 | 32362 ft | 429 kts | 308° |
| 2026-04-27 22:57 | 49.66471 | 5.98003 | 31587 ft | 430 kts | 308° |
| 2026-04-27 22:57 | 49.68362 | 5.94411 | 30819 ft | 431 kts | 308° |
| 2026-04-27 22:57 | 49.70253 | 5.90821 | 29989 ft | 432 kts | 308° |
| 2026-04-27 22:58 | 49.72156 | 5.87205 | 29054 ft | 434 kts | 308° |
| 2026-04-27 22:58 | 49.74060 | 5.83584 | 28304 ft | 431 kts | 308° |
| 2026-04-27 22:58 | 49.75935 | 5.80014 | 27676 ft | 426 kts | 308° |
| 2026-04-27 22:58 | 49.77794 | 5.76469 | 27067 ft | 421 kts | 308° |
| 2026-04-27 22:59 | 49.79626 | 5.72972 | 26444 ft | 417 kts | 308° |
| 2026-04-27 22:59 | 49.81448 | 5.69486 | 25853 ft | 413 kts | 308° |
| 2026-04-27 22:59 | 49.83251 | 5.66033 | 25262 ft | 410 kts | 308° |
| 2026-04-27 22:59 | 49.85039 | 5.62605 | 24674 ft | 407 kts | 308° |
| 2026-04-27 23:00 | 49.88547 | 5.55863 | 23464 ft | 402 kts | 308° |
| 2026-04-27 23:00 | 49.90297 | 5.52493 | 22802 ft | 400 kts | 308° |
| 2026-04-27 23:00 | 49.92034 | 5.49146 | 22196 ft | 396 kts | 308° |
| 2026-04-27 23:01 | 49.93752 | 5.45829 | 21606 ft | 392 kts | 308° |
| 2026-04-27 23:01 | 49.95456 | 5.42537 | 21028 ft | 389 kts | 308° |
| 2026-04-27 23:01 | 49.97144 | 5.39270 | 20457 ft | 387 kts | 308° |
| 2026-04-27 23:01 | 49.98820 | 5.36023 | 19884 ft | 384 kts | 308° |
| 2026-04-27 23:02 | 50.00489 | 5.32785 | 19324 ft | 382 kts | 308° |
| 2026-04-27 23:02 | 50.02149 | 5.29562 | 18753 ft | 381 kts | 308° |
| 2026-04-27 23:02 | 50.03806 | 5.26338 | 18141 ft | 380 kts | 307° |
| 2026-04-27 23:02 | 50.05451 | 5.23137 | 17514 ft | 378 kts | 308° |
| 2026-04-27 23:03 | 50.07088 | 5.19945 | 16929 ft | 375 kts | 308° |
| 2026-04-27 23:03 | 50.08163 | 5.17847 | 16557 ft | 374 kts | 308° |